PWSweather.com
Personal Weather Stations
Station Observations
DW0493
Castlewood Ranch, Castle Rock, CO

Castlewood RanchCastle Rock, CO

Lat: 39.36264, Lon: -104.79156

Elevation: 6608

Station Type: Davis Pro Vantage 2

http://www.castlerockweather.org

Latest ConditionsUpdated 5:50:00 PM MDT Friday, Jun 24, 2016
Currently Today's Max Today's Min Today's Average
Temperature 73.9°F23.3°C 90.6°F32.6°C 58.5°F14.7°C 70.5°F21.4°C
Dew Point 54.1°F12.3°C 59.8°F15.4°C 46.4°F8.0°C 51.7°F10.9°C
Winds Calm Calm 13.0 mph NE20.9 kmh NE - 3.2 mph 5.1 kmh
Wind Gusts 3.0 mph4.8 kmh 18.0 mph29.0 kmh - -
Humidity 50% 73% 26% 54%
Pressure 30.84 in1044.4 mb 31.17 in1055.5 mb 30.55 in1034.5 mb -
Hour Temp Dew Point Humidity Winds Wind Gusts Pressure Precip Precip Rate Daily Precip Total
05:50 PM 73.9°F23.3°C 54.1°F12.3°C 50% Calm Calm 3.0 mph4.8 kmh 30.84 in1044.4 mb 0.00 in0.0 mm 0.00 in0.0 mm 0.20 in5.1 mm
05:45 PM 74.0°F23.3°C 54.2°F12.3°C 50% 1.0 mph WSW1.6 kmh WSW 2.0 mph3.2 kmh 30.84 in1044.4 mb 0.00 in0.0 mm 0.00 in0.0 mm 0.20 in5.1 mm
05:40 PM 74.1°F23.4°C 53.2°F11.8°C 48% 2.0 mph WSW3.2 kmh WSW 7.0 mph11.3 kmh 30.84 in1044.4 mb 0.00 in0.0 mm 0.00 in0.0 mm 0.20 in5.1 mm
05:35 PM 74.2°F23.4°C 53.8°F12.1°C 49% 3.0 mph WSW4.8 kmh WSW 6.0 mph9.7 kmh 30.84 in1044.4 mb 0.00 in0.0 mm 0.00 in0.0 mm 0.20 in5.1 mm
05:30 PM 74.3°F23.5°C 52.8°F11.6°C 47% 1.0 mph SW1.6 kmh SW 6.0 mph9.7 kmh 30.90 in1046.4 mb 0.00 in0.0 mm 0.00 in0.0 mm 0.20 in5.1 mm
05:25 PM 74.3°F23.5°C 52.2°F11.2°C 46% Calm Calm 4.0 mph6.4 kmh 30.90 in1046.4 mb 0.00 in0.0 mm 0.00 in0.0 mm 0.20 in5.1 mm
05:20 PM 74.4°F23.6°C 52.3°F11.3°C 46% Calm Calm 6.0 mph9.7 kmh 30.89 in1046.1 mb 0.00 in0.0 mm 0.00 in0.0 mm 0.20 in5.1 mm
05:15 PM 74.5°F23.6°C 53.0°F11.7°C 47% 1.0 mph SE1.6 kmh SE 6.0 mph9.7 kmh 30.89 in1046.1 mb 0.00 in0.0 mm 0.00 in0.0 mm 0.20 in5.1 mm
05:10 PM 74.8°F23.8°C 53.2°F11.8°C 47% 1.0 mph SE1.6 kmh SE 6.0 mph9.7 kmh 30.80 in1043.0 mb 0.00 in0.0 mm 0.00 in0.0 mm 0.20 in5.1 mm
05:05 PM 75.1°F23.9°C 54.7°F12.6°C 49% 2.0 mph SSE3.2 kmh SSE 6.0 mph9.7 kmh 30.80 in1043.0 mb 0.00 in0.0 mm 0.00 in0.0 mm 0.20 in5.1 mm
05:00 PM 75.4°F24.1°C 54.9°F12.7°C 49% 3.0 mph SSE4.8 kmh SSE 7.0 mph11.3 kmh 30.80 in1043.0 mb 0.00 in0.0 mm 0.00 in0.0 mm 0.20 in5.1 mm
04:55 PM 75.7°F24.3°C 55.2°F12.9°C 49% 3.0 mph SE4.8 kmh SE 5.0 mph8.0 kmh 30.80 in1043.0 mb 0.00 in0.0 mm 0.00 in0.0 mm 0.20 in5.1 mm
04:50 PM 75.8°F24.3°C 53.6°F12.0°C 46% Calm Calm 9.0 mph14.5 kmh 30.80 in1043.0 mb 0.00 in0.0 mm 0.00 in0.0 mm 0.20 in5.1 mm
04:45 PM 75.8°F24.3°C 55.3°F12.9°C 49% 6.0 mph ESE9.7 kmh ESE 10.0 mph16.1 kmh 30.81 in1043.3 mb 0.00 in0.0 mm 0.00 in0.0 mm 0.20 in5.1 mm
04:40 PM 75.1°F23.9°C 54.1°F12.3°C 48% 6.0 mph ESE9.7 kmh ESE 12.0 mph19.3 kmh 30.81 in1043.3 mb 0.00 in0.0 mm 0.00 in0.0 mm 0.20 in5.1 mm
04:35 PM 74.1°F23.4°C 55.4°F13.0°C 52% 7.0 mph ESE11.3 kmh ESE 13.0 mph20.9 kmh 30.66 in1038.3 mb 0.00 in0.0 mm 0.00 in0.0 mm 0.20 in5.1 mm
04:30 PM 73.0°F22.8°C 53.8°F12.1°C 51% 8.0 mph ESE12.9 kmh ESE 12.0 mph19.3 kmh 30.66 in1038.3 mb 0.00 in0.0 mm 0.00 in0.0 mm 0.20 in5.1 mm
04:25 PM 71.8°F22.1°C 54.3°F12.4°C 54% 10.0 mph ESE16.1 kmh ESE 11.0 mph17.7 kmh 30.66 in1038.3 mb 0.00 in0.0 mm 0.00 in0.0 mm 0.20 in5.1 mm
04:20 PM 71.3°F21.8°C 52.3°F11.3°C 51% 11.0 mph E17.7 kmh E 13.0 mph20.9 kmh 31.01 in1050.1 mb 0.00 in0.0 mm 0.00 in0.0 mm 0.20 in5.1 mm
04:15 PM 71.1°F21.7°C 52.1°F11.2°C 51% 9.0 mph E14.5 kmh E 13.0 mph20.9 kmh 30.73 in1040.6 mb 0.00 in0.0 mm 0.00 in0.0 mm 0.20 in5.1 mm
04:10 PM 71.1°F21.7°C 52.1°F11.2°C 51% 8.0 mph ESE12.9 kmh ESE 13.0 mph20.9 kmh 30.73 in1040.6 mb 0.00 in0.0 mm 0.00 in0.0 mm 0.20 in5.1 mm
04:05 PM 71.2°F21.8°C 52.2°F11.2°C 51% 8.0 mph E12.9 kmh E 13.0 mph20.9 kmh 30.73 in1040.6 mb 0.00 in0.0 mm 0.00 in0.0 mm 0.20 in5.1 mm
04:00 PM 71.3°F21.8°C 53.3°F11.8°C 53% 5.0 mph E8.0 kmh E 14.0 mph22.5 kmh 30.73 in1040.6 mb 0.00 in0.0 mm 0.00 in0.0 mm 0.20 in5.1 mm
03:55 PM 71.2°F21.8°C 54.2°F12.3°C 55% 9.0 mph E14.5 kmh E 17.0 mph27.4 kmh 30.84 in1044.4 mb 0.00 in0.0 mm 0.00 in0.0 mm 0.20 in5.1 mm
03:50 PM 70.0°F21.1°C 54.1°F12.3°C 57% 13.0 mph ESE20.9 kmh ESE 14.0 mph22.5 kmh 30.84 in1044.4 mb 0.01 in0.3 mm 0.00 in0.0 mm 0.20 in5.1 mm
03:45 PM 69.4°F20.8°C 52.6°F11.4°C 55% 8.0 mph ESE12.9 kmh ESE 9.0 mph14.5 kmh 30.84 in1044.4 mb 0.01 in0.3 mm 0.00 in0.0 mm 0.20 in5.1 mm
03:40 PM 69.0°F20.6°C 52.7°F11.5°C 56% 10.0 mph ESE16.1 kmh ESE 12.0 mph19.3 kmh 30.77 in1042.0 mb 0.04 in1.0 mm 0.00 in0.0 mm 0.20 in5.1 mm
03:35 PM 69.0°F20.6°C 51.2°F10.7°C 53% 8.0 mph ESE12.9 kmh ESE 17.0 mph27.4 kmh 30.90 in1046.4 mb 0.04 in1.0 mm 0.00 in0.0 mm 0.20 in5.1 mm
03:30 PM 68.6°F20.3°C 51.8°F11.0°C 55% 6.0 mph E9.7 kmh E 14.0 mph22.5 kmh 30.90 in1046.4 mb 0.04 in1.0 mm 0.00 in0.0 mm 0.20 in5.1 mm
03:25 PM 68.0°F20.0°C 54.1°F12.3°C 61% 9.0 mph ESE14.5 kmh ESE 15.0 mph24.1 kmh 30.90 in1046.4 mb 0.10 in2.5 mm 0.00 in0.0 mm 0.20 in5.1 mm
03:20 PM 67.3°F19.6°C 53.9°F12.2°C 62% 7.0 mph E11.3 kmh E 12.0 mph19.3 kmh 30.90 in1046.4 mb 0.15 in3.8 mm 0.00 in0.0 mm 0.20 in5.1 mm
03:15 PM 66.5°F19.2°C 55.2°F12.9°C 67% 2.0 mph ESE3.2 kmh ESE 10.0 mph16.1 kmh 30.90 in1046.4 mb 0.20 in5.1 mm 0.00 in0.0 mm 0.20 in5.1 mm
03:10 PM 65.4°F18.6°C 53.3°F11.8°C 65% 5.0 mph ESE8.0 kmh ESE 10.0 mph16.1 kmh 30.94 in1047.7 mb 0.20 in5.1 mm 0.00 in0.0 mm 0.20 in5.1 mm
03:05 PM 64.5°F18.1°C 55.3°F12.9°C 72% 2.0 mph ENE3.2 kmh ENE 12.0 mph19.3 kmh 30.94 in1047.7 mb 0.20 in5.1 mm 0.00 in0.0 mm 0.20 in5.1 mm
03:00 PM 63.3°F17.4°C 50.9°F10.5°C 64% 6.0 mph NE9.7 kmh NE 16.0 mph25.7 kmh 30.94 in1047.7 mb 0.20 in5.1 mm 0.00 in0.0 mm 0.20 in5.1 mm
02:55 PM 62.0°F16.7°C 50.9°F10.5°C 67% 13.0 mph NE20.9 kmh NE 18.0 mph29.0 kmh 30.79 in1042.7 mb 0.20 in5.1 mm 0.00 in0.0 mm 0.20 in5.1 mm
02:50 PM 61.5°F16.4°C 51.6°F10.9°C 70% 10.0 mph ENE16.1 kmh ENE 14.0 mph22.5 kmh 30.87 in1045.4 mb 0.20 in5.1 mm 0.12 in3.0 mm 0.20 in5.1 mm
02:45 PM 61.8°F16.6°C 52.7°F11.5°C 72% 8.0 mph ENE12.9 kmh ENE 8.0 mph12.9 kmh 30.87 in1045.4 mb 0.19 in4.8 mm 0.24 in6.1 mm 0.19 in4.8 mm
02:40 PM 62.1°F16.7°C 51.4°F10.8°C 68% 3.0 mph NNE4.8 kmh NNE 11.0 mph17.7 kmh 30.87 in1045.4 mb 0.17 in4.3 mm 0.12 in3.0 mm 0.17 in4.3 mm
02:35 PM 62.6°F17.0°C 51.5°F10.8°C 67% Calm Calm -- 31.00 in1049.8 mb 0.16 in4.1 mm 0.00 in0.0 mm 0.16 in4.1 mm
02:29 PM 63.3°F17.4°C 51.8°F11.0°C 66% Calm Calm 10.0 mph16.1 kmh 31.00 in1049.8 mb 0.16 in4.1 mm 0.00 in0.0 mm 0.16 in4.1 mm
02:25 PM 65.0°F18.3°C 51.7°F10.9°C 62% 4.0 mph NNE6.4 kmh NNE 4.0 mph6.4 kmh 31.00 in1049.8 mb 0.16 in4.1 mm 0.60 in15.2 mm 0.16 in4.1 mm
02:20 PM 67.8°F19.9°C 52.5°F11.4°C 58% 3.0 mph N4.8 kmh N 6.0 mph9.7 kmh 31.00 in1049.8 mb 0.11 in2.8 mm 0.72 in18.3 mm 0.11 in2.8 mm
02:15 PM 71.5°F21.9°C 52.4°F11.3°C 51% 5.0 mph N8.0 kmh N 5.0 mph8.0 kmh 30.75 in1041.3 mb 0.05 in1.3 mm 0.60 in15.2 mm 0.05 in1.3 mm
02:10 PM 76.1°F24.5°C 51.4°F10.8°C 42% 6.0 mph NNW9.7 kmh NNW 9.0 mph14.5 kmh 30.75 in1041.3 mb 0.00 in0.0 mm 0.00 in0.0 mm 0.00 in0.0 mm
02:05 PM 79.3°F26.3°C 47.7°F8.7°C 33% 7.0 mph NW11.3 kmh NW 14.0 mph22.5 kmh 30.75 in1041.3 mb 0.00 in0.0 mm 0.00 in0.0 mm 0.00 in0.0 mm
02:00 PM 80.9°F27.2°C 46.6°F8.1°C 30% 4.0 mph NW6.4 kmh NW 14.0 mph22.5 kmh 30.75 in1041.3 mb 0.00 in0.0 mm 0.00 in0.0 mm 0.00 in0.0 mm
01:55 PM 82.4°F28.0°C 47.0°F8.3°C 29% 4.0 mph NW6.4 kmh NW 14.0 mph22.5 kmh 30.75 in1041.3 mb 0.00 in0.0 mm 0.00 in0.0 mm 0.00 in0.0 mm
01:50 PM 83.3°F28.5°C 50.4°F10.2°C 32% 1.0 mph N1.6 kmh N 7.0 mph11.3 kmh 30.75 in1041.3 mb 0.00 in0.0 mm 0.00 in0.0 mm 0.00 in0.0 mm
01:45 PM 83.8°F28.8°C 51.7°F10.9°C 33% 4.0 mph E6.4 kmh E 7.0 mph11.3 kmh 30.75 in1041.3 mb 0.00 in0.0 mm 0.00 in0.0 mm 0.00 in0.0 mm
01:40 PM 84.7°F29.3°C 54.8°F12.7°C 36% 7.0 mph E11.3 kmh E 11.0 mph17.7 kmh 30.75 in1041.3 mb 0.00 in0.0 mm 0.00 in0.0 mm 0.00 in0.0 mm
01:35 PM 85.4°F29.7°C 56.2°F13.4°C 37% 7.0 mph ENE11.3 kmh ENE 11.0 mph17.7 kmh 30.61 in1036.6 mb 0.00 in0.0 mm 0.00 in0.0 mm 0.00 in0.0 mm
01:30 PM 85.7°F29.8°C 55.7°F13.2°C 36% 9.0 mph E14.5 kmh E 14.0 mph22.5 kmh 30.61 in1036.6 mb 0.00 in0.0 mm 0.00 in0.0 mm 0.00 in0.0 mm
01:25 PM 86.2°F30.1°C 58.4°F14.7°C 39% 10.0 mph E16.1 kmh E 11.0 mph17.7 kmh 30.61 in1036.6 mb 0.00 in0.0 mm 0.00 in0.0 mm 0.00 in0.0 mm
01:20 PM 85.9°F29.9°C 55.1°F12.8°C 35% 8.0 mph E12.9 kmh E 13.0 mph20.9 kmh 30.61 in1036.6 mb 0.00 in0.0 mm 0.00 in0.0 mm 0.00 in0.0 mm
01:15 PM 85.7°F29.8°C 57.2°F14.0°C 38% 6.0 mph ENE9.7 kmh ENE 6.0 mph9.7 kmh 30.71 in1040.0 mb 0.00 in0.0 mm 0.00 in0.0 mm 0.00 in0.0 mm
01:10 PM 85.7°F29.8°C 56.5°F13.6°C 37% 7.0 mph ENE11.3 kmh ENE 14.0 mph22.5 kmh 30.71 in1040.0 mb 0.00 in0.0 mm 0.00 in0.0 mm 0.00 in0.0 mm
01:05 PM 86.0°F30.0°C 55.2°F12.9°C 35% 5.0 mph E8.0 kmh E 13.0 mph20.9 kmh 30.71 in1040.0 mb 0.00 in0.0 mm 0.00 in0.0 mm 0.00 in0.0 mm
01:00 PM 86.1°F30.1°C 56.1°F13.4°C 36% 11.0 mph ENE17.7 kmh ENE 11.0 mph17.7 kmh 30.71 in1040.0 mb 0.00 in0.0 mm 0.00 in0.0 mm 0.00 in0.0 mm
12:55 PM 86.0°F30.0°C 58.2°F14.6°C 39% 6.0 mph E9.7 kmh E 10.0 mph16.1 kmh 30.71 in1040.0 mb 0.00 in0.0 mm 0.00 in0.0 mm 0.00 in0.0 mm
12:50 PM 85.8°F29.9°C 57.3°F14.1°C 38% 5.0 mph E8.0 kmh E 9.0 mph14.5 kmh 30.67 in1038.6 mb 0.00 in0.0 mm 0.00 in0.0 mm 0.00 in0.0 mm
12:45 PM 85.6°F29.8°C 57.1°F13.9°C 38% 5.0 mph E8.0 kmh E 10.0 mph16.1 kmh 30.73 in1040.6 mb 0.00 in0.0 mm 0.00 in0.0 mm 0.00 in0.0 mm
12:40 PM 85.5°F29.7°C 59.8°F15.4°C 42% 7.0 mph E11.3 kmh E 11.0 mph17.7 kmh 30.69 in1039.3 mb 0.00 in0.0 mm 0.00 in0.0 mm 0.00 in0.0 mm
12:35 PM 85.9°F29.9°C 55.9°F13.3°C 36% 4.0 mph E6.4 kmh E 9.0 mph14.5 kmh 30.68 in1038.9 mb 0.00 in0.0 mm 0.00 in0.0 mm 0.00 in0.0 mm
12:30 PM 87.1°F30.6°C 55.4°F13.0°C 34% 7.0 mph E11.3 kmh E 9.0 mph14.5 kmh 30.68 in1038.9 mb 0.00 in0.0 mm 0.00 in0.0 mm 0.00 in0.0 mm
12:25 PM 87.7°F30.9°C 55.9°F13.3°C 34% 4.0 mph SE6.4 kmh SE 6.0 mph9.7 kmh 30.68 in1038.9 mb 0.00 in0.0 mm 0.00 in0.0 mm 0.00 in0.0 mm
12:20 PM 88.2°F31.2°C 58.7°F14.8°C 37% 1.0 mph E1.6 kmh E 5.0 mph8.0 kmh 30.68 in1038.9 mb 0.00 in0.0 mm 0.00 in0.0 mm 0.00 in0.0 mm
12:15 PM 89.1°F31.7°C 57.1°F13.9°C 34% 5.0 mph E8.0 kmh E 11.0 mph17.7 kmh 30.68 in1038.9 mb 0.00 in0.0 mm 0.00 in0.0 mm 0.00 in0.0 mm
12:10 PM 89.7°F32.1°C 52.3°F11.3°C 28% 1.0 mph SE1.6 kmh SE 1.0 mph1.6 kmh 30.94 in1047.7 mb 0.00 in0.0 mm 0.00 in0.0 mm 0.00 in0.0 mm
12:05 PM 90.3°F32.4°C 56.5°F13.6°C 32% 3.0 mph SE4.8 kmh SE 4.0 mph6.4 kmh 30.94 in1047.7 mb 0.00 in0.0 mm 0.00 in0.0 mm 0.00 in0.0 mm
12:00 PM 90.6°F32.6°C 51.1°F10.6°C 26% Calm Calm 4.0 mph6.4 kmh 30.94 in1047.7 mb 0.00 in0.0 mm 0.00 in0.0 mm 0.00 in0.0 mm
11:55 AM 90.6°F32.6°C 52.1°F11.2°C 27% 1.0 mph S1.6 kmh S 5.0 mph8.0 kmh 30.94 in1047.7 mb 0.00 in0.0 mm 0.00 in0.0 mm 0.00 in0.0 mm
11:50 AM 90.2°F32.3°C 55.5°F13.1°C 31% 3.0 mph SW4.8 kmh SW 4.0 mph6.4 kmh 30.94 in1047.7 mb 0.00 in0.0 mm 0.00 in0.0 mm 0.00 in0.0 mm
11:45 AM 89.7°F32.1°C 52.3°F11.3°C 28% 1.0 mph WSW1.6 kmh WSW 3.0 mph4.8 kmh 30.94 in1047.7 mb 0.00 in0.0 mm 0.00 in0.0 mm 0.00 in0.0 mm
11:40 AM 89.0°F31.7°C 51.7°F10.9°C 28% Calm Calm 3.0 mph4.8 kmh 31.05 in1051.5 mb 0.00 in0.0 mm 0.00 in0.0 mm 0.00 in0.0 mm
11:35 AM 88.5°F31.4°C 56.6°F13.7°C 34% Calm Calm 2.0 mph3.2 kmh 31.05 in1051.5 mb 0.00 in0.0 mm 0.00 in0.0 mm 0.00 in0.0 mm
11:30 AM 88.1°F31.2°C 53.7°F12.1°C 31% Calm Calm 4.0 mph6.4 kmh 31.05 in1051.5 mb 0.00 in0.0 mm 0.00 in0.0 mm 0.00 in0.0 mm
11:25 AM 87.6°F30.9°C 52.4°F11.3°C 30% Calm Calm 4.0 mph6.4 kmh 31.05 in1051.5 mb 0.00 in0.0 mm 0.00 in0.0 mm 0.00 in0.0 mm
11:20 AM 87.2°F30.7°C 52.0°F11.1°C 30% Calm Calm 5.0 mph8.0 kmh 30.79 in1042.7 mb 0.00 in0.0 mm 0.00 in0.0 mm 0.00 in0.0 mm
11:15 AM 86.9°F30.5°C 53.5°F11.9°C 32% Calm Calm 5.0 mph8.0 kmh 30.79 in1042.7 mb 0.00 in0.0 mm 0.00 in0.0 mm 0.00 in0.0 mm
11:10 AM 86.4°F30.2°C 53.1°F11.7°C 32% Calm Calm 4.0 mph6.4 kmh 30.79 in1042.7 mb 0.00 in0.0 mm 0.00 in0.0 mm 0.00 in0.0 mm
11:05 AM 85.9°F29.9°C 52.7°F11.5°C 32% 1.0 mph WSW1.6 kmh WSW 5.0 mph8.0 kmh 30.79 in1042.7 mb 0.00 in0.0 mm 0.00 in0.0 mm 0.00 in0.0 mm
11:00 AM 85.5°F29.7°C 53.1°F11.7°C 33% 2.0 mph WSW3.2 kmh WSW 5.0 mph8.0 kmh 30.81 in1043.3 mb 0.00 in0.0 mm 0.00 in0.0 mm 0.00 in0.0 mm
10:55 AM 85.0°F29.4°C 52.7°F11.5°C 33% 2.0 mph WSW3.2 kmh WSW 5.0 mph8.0 kmh 30.81 in1043.3 mb 0.00 in0.0 mm 0.00 in0.0 mm 0.00 in0.0 mm
10:50 AM 84.7°F29.3°C 53.3°F11.8°C 34% 3.0 mph WSW4.8 kmh WSW 6.0 mph9.7 kmh 30.93 in1047.4 mb 0.00 in0.0 mm 0.00 in0.0 mm 0.00 in0.0 mm
10:45 AM 84.4°F29.1°C 51.4°F10.8°C 32% 6.0 mph WSW9.7 kmh WSW 6.0 mph9.7 kmh 30.96 in1048.4 mb 0.00 in0.0 mm 0.00 in0.0 mm 0.00 in0.0 mm
10:40 AM 84.0°F28.9°C 51.8°F11.0°C 33% 3.0 mph WSW4.8 kmh WSW 9.0 mph14.5 kmh 30.96 in1048.4 mb 0.00 in0.0 mm 0.00 in0.0 mm 0.00 in0.0 mm
10:35 AM 83.6°F28.7°C 52.3°F11.3°C 34% 3.0 mph WSW4.8 kmh WSW 10.0 mph16.1 kmh 30.96 in1048.4 mb 0.00 in0.0 mm 0.00 in0.0 mm 0.00 in0.0 mm
10:29 AM 83.3°F28.5°C 52.0°F11.1°C 34% 6.0 mph WSW9.7 kmh WSW 9.0 mph14.5 kmh 30.80 in1043.0 mb 0.00 in0.0 mm 0.00 in0.0 mm 0.00 in0.0 mm
10:25 AM 83.0°F28.3°C 51.8°F11.0°C 34% 3.0 mph WSW4.8 kmh WSW 3.0 mph4.8 kmh 30.80 in1043.0 mb 0.00 in0.0 mm 0.00 in0.0 mm 0.00 in0.0 mm
10:20 AM 82.5°F28.1°C 54.4°F12.4°C 38% 4.0 mph WSW6.4 kmh WSW 7.0 mph11.3 kmh 30.80 in1043.0 mb 0.00 in0.0 mm 0.00 in0.0 mm 0.00 in0.0 mm
10:15 AM 82.1°F27.8°C 54.7°F12.6°C 39% 4.0 mph WSW6.4 kmh WSW 4.0 mph6.4 kmh 30.80 in1043.0 mb 0.00 in0.0 mm 0.00 in0.0 mm 0.00 in0.0 mm
10:10 AM 81.7°F27.6°C 53.7°F12.1°C 38% 4.0 mph WSW6.4 kmh WSW 5.0 mph8.0 kmh 30.73 in1040.6 mb 0.00 in0.0 mm 0.00 in0.0 mm 0.00 in0.0 mm
10:05 AM 81.4°F27.4°C 54.1°F12.3°C 39% 5.0 mph W8.0 kmh W 10.0 mph16.1 kmh 30.78 in1042.3 mb 0.00 in0.0 mm 0.00 in0.0 mm 0.00 in0.0 mm
10:00 AM 81.0°F27.2°C 53.7°F12.1°C 39% 6.0 mph WSW9.7 kmh WSW 9.0 mph14.5 kmh 30.78 in1042.3 mb 0.00 in0.0 mm 0.00 in0.0 mm 0.00 in0.0 mm
09:55 AM 80.5°F26.9°C 54.7°F12.6°C 41% 4.0 mph WSW6.4 kmh WSW 9.0 mph14.5 kmh 30.74 in1041.0 mb 0.00 in0.0 mm 0.00 in0.0 mm 0.00 in0.0 mm
09:50 AM 80.1°F26.7°C 52.9°F11.6°C 39% 2.0 mph WSW3.2 kmh WSW 8.0 mph12.9 kmh 30.74 in1041.0 mb 0.00 in0.0 mm 0.00 in0.0 mm 0.00 in0.0 mm
09:45 AM 79.7°F26.5°C 53.3°F11.8°C 40% 4.0 mph WSW6.4 kmh WSW 7.0 mph11.3 kmh 30.74 in1041.0 mb 0.00 in0.0 mm 0.00 in0.0 mm 0.00 in0.0 mm
09:40 AM 79.3°F26.3°C 54.2°F12.3°C 42% 4.0 mph WSW6.4 kmh WSW 9.0 mph14.5 kmh 30.74 in1041.0 mb 0.00 in0.0 mm 0.00 in0.0 mm 0.00 in0.0 mm
09:35 AM 78.9°F26.1°C 53.2°F11.8°C 41% 3.0 mph SW4.8 kmh SW 10.0 mph16.1 kmh 30.74 in1041.0 mb 0.00 in0.0 mm 0.00 in0.0 mm 0.00 in0.0 mm
09:30 AM 78.6°F25.9°C 53.0°F11.7°C 41% 5.0 mph WSW8.0 kmh WSW 7.0 mph11.3 kmh 30.89 in1046.1 mb 0.00 in0.0 mm 0.00 in0.0 mm 0.00 in0.0 mm
09:25 AM 78.1°F25.6°C 53.8°F12.1°C 43% 2.0 mph WSW3.2 kmh WSW 7.0 mph11.3 kmh 30.89 in1046.1 mb 0.00 in0.0 mm 0.00 in0.0 mm 0.00 in0.0 mm
09:20 AM 77.6°F25.3°C 54.0°F12.2°C 44% 6.0 mph WSW9.7 kmh WSW 7.0 mph11.3 kmh 30.89 in1046.1 mb 0.00 in0.0 mm 0.00 in0.0 mm 0.00 in0.0 mm
09:15 AM 77.2°F25.1°C 53.6°F12.0°C 44% 3.0 mph WSW4.8 kmh WSW 11.0 mph17.7 kmh 30.89 in1046.1 mb 0.00 in0.0 mm 0.00 in0.0 mm 0.00 in0.0 mm
09:10 AM 76.8°F24.9°C 53.3°F11.8°C 44% 1.0 mph WSW1.6 kmh WSW 9.0 mph14.5 kmh 30.91 in1046.7 mb 0.00 in0.0 mm 0.00 in0.0 mm 0.00 in0.0 mm
09:05 AM 76.4°F24.7°C 52.9°F11.6°C 44% 4.0 mph WSW6.4 kmh WSW 10.0 mph16.1 kmh 30.91 in1046.7 mb 0.00 in0.0 mm 0.00 in0.0 mm 0.00 in0.0 mm
09:00 AM 76.0°F24.4°C 53.2°F11.8°C 45% 5.0 mph WSW8.0 kmh WSW 10.0 mph16.1 kmh 30.86 in1045.0 mb 0.00 in0.0 mm 0.00 in0.0 mm 0.00 in0.0 mm
08:55 AM 75.6°F24.2°C 52.8°F11.6°C 45% 3.0 mph WSW4.8 kmh WSW 8.0 mph12.9 kmh 30.86 in1045.0 mb 0.00 in0.0 mm 0.00 in0.0 mm 0.00 in0.0 mm
08:50 AM 75.2°F24.0°C 52.4°F11.3°C 45% 4.0 mph SW6.4 kmh SW 6.0 mph9.7 kmh 31.16 in1055.2 mb 0.00 in0.0 mm 0.00 in0.0 mm 0.00 in0.0 mm
08:45 AM 74.8°F23.8°C 52.7°F11.5°C 46% 4.0 mph WSW6.4 kmh WSW 11.0 mph17.7 kmh 31.16 in1055.2 mb 0.00 in0.0 mm 0.00 in0.0 mm 0.00 in0.0 mm
08:40 AM 74.3°F23.5°C 52.2°F11.2°C 46% 5.0 mph WSW8.0 kmh WSW 8.0 mph12.9 kmh 31.16 in1055.2 mb 0.00 in0.0 mm 0.00 in0.0 mm 0.00 in0.0 mm
08:35 AM 73.9°F23.3°C 51.2°F10.7°C 45% 3.0 mph WSW4.8 kmh WSW 9.0 mph14.5 kmh 31.16 in1055.2 mb 0.00 in0.0 mm 0.00 in0.0 mm 0.00 in0.0 mm
08:29 AM 73.5°F23.1°C 51.5°F10.8°C 46% 7.0 mph WSW11.3 kmh WSW 10.0 mph16.1 kmh 31.16 in1055.2 mb 0.00 in0.0 mm 0.00 in0.0 mm 0.00 in0.0 mm
08:25 AM 73.2°F22.9°C 51.8°F11.0°C 47% 3.0 mph WSW4.8 kmh WSW 3.0 mph4.8 kmh 31.07 in1052.2 mb 0.00 in0.0 mm 0.00 in0.0 mm 0.00 in0.0 mm
08:20 AM 72.9°F22.7°C 51.5°F10.8°C 47% 9.0 mph WSW14.5 kmh WSW 9.0 mph14.5 kmh 31.09 in1052.8 mb 0.00 in0.0 mm 0.00 in0.0 mm 0.00 in0.0 mm
08:15 AM 72.4°F22.4°C 51.1°F10.6°C 47% 7.0 mph WSW11.3 kmh WSW 10.0 mph16.1 kmh 30.55 in1034.5 mb 0.00 in0.0 mm 0.00 in0.0 mm 0.00 in0.0 mm
08:10 AM 71.9°F22.2°C 50.6°F10.3°C 47% 3.0 mph WSW4.8 kmh WSW 3.0 mph4.8 kmh 30.83 in1044.0 mb 0.00 in0.0 mm 0.00 in0.0 mm 0.00 in0.0 mm
08:05 AM 71.3°F21.8°C 50.6°F10.3°C 48% 3.0 mph WSW4.8 kmh WSW 3.0 mph4.8 kmh 30.90 in1046.4 mb 0.00 in0.0 mm 0.00 in0.0 mm 0.00 in0.0 mm
07:59 AM 70.6°F21.4°C 50.5°F10.3°C 49% 2.0 mph WSW3.2 kmh WSW 5.0 mph8.0 kmh 30.95 in1048.1 mb 0.00 in0.0 mm 0.00 in0.0 mm 0.00 in0.0 mm
07:55 AM 69.7°F20.9°C 50.3°F10.2°C 50% 2.0 mph WSW3.2 kmh WSW 2.0 mph3.2 kmh 30.95 in1048.1 mb 0.00 in0.0 mm 0.00 in0.0 mm 0.00 in0.0 mm
07:50 AM 68.7°F20.4°C 49.9°F9.9°C 51% Calm Calm 3.0 mph4.8 kmh 30.95 in1048.1 mb 0.00 in0.0 mm 0.00 in0.0 mm 0.00 in0.0 mm
07:45 AM 67.9°F19.9°C 51.6°F10.9°C 56% Calm Calm -- 30.95 in1048.1 mb 0.00 in0.0 mm 0.00 in0.0 mm 0.00 in0.0 mm
07:40 AM 67.3°F19.6°C 53.0°F11.7°C 60% Calm Calm -- 30.95 in1048.1 mb 0.00 in0.0 mm 0.00 in0.0 mm 0.00 in0.0 mm
07:35 AM 66.7°F19.3°C 52.4°F11.3°C 60% Calm Calm 2.0 mph3.2 kmh 30.95 in1048.1 mb 0.00 in0.0 mm 0.00 in0.0 mm 0.00 in0.0 mm
07:30 AM 66.1°F18.9°C 51.8°F11.0°C 60% Calm Calm 3.0 mph4.8 kmh 30.90 in1046.4 mb 0.00 in0.0 mm 0.00 in0.0 mm 0.00 in0.0 mm
07:25 AM 65.5°F18.6°C 51.7°F10.9°C 61% Calm Calm -- 30.90 in1046.4 mb 0.00 in0.0 mm 0.00 in0.0 mm 0.00 in0.0 mm
07:20 AM 65.0°F18.3°C 52.1°F11.2°C 63% Calm Calm -- 30.90 in1046.4 mb 0.00 in0.0 mm 0.00 in0.0 mm 0.00 in0.0 mm
07:14 AM 64.5°F18.1°C 52.1°F11.2°C 64% Calm Calm 1.0 mph1.6 kmh 30.90 in1046.4 mb 0.00 in0.0 mm 0.00 in0.0 mm 0.00 in0.0 mm
07:09 AM 64.0°F17.8°C 51.6°F10.9°C 64% Calm Calm 2.0 mph3.2 kmh 30.89 in1046.1 mb 0.00 in0.0 mm 0.00 in0.0 mm 0.00 in0.0 mm
07:04 AM 63.4°F17.4°C 52.3°F11.3°C 67% Calm Calm 1.0 mph1.6 kmh 30.89 in1046.1 mb 0.00 in0.0 mm 0.00 in0.0 mm 0.00 in0.0 mm
07:00 AM 62.7°F17.1°C 52.0°F11.1°C 68% Calm Calm -- 30.89 in1046.1 mb 0.00 in0.0 mm 0.00 in0.0 mm 0.00 in0.0 mm
06:54 AM 62.1°F16.7°C 50.2°F10.1°C 65% Calm Calm -- 30.84 in1044.4 mb 0.00 in0.0 mm 0.00 in0.0 mm 0.00 in0.0 mm
06:49 AM 61.6°F16.4°C 48.9°F9.4°C 63% Calm Calm -- 30.67 in1038.6 mb 0.00 in0.0 mm 0.00 in0.0 mm 0.00 in0.0 mm
06:44 AM 61.2°F16.2°C 48.5°F9.2°C 63% Calm Calm -- 30.67 in1038.6 mb 0.00 in0.0 mm 0.00 in0.0 mm 0.00 in0.0 mm
06:39 AM 60.8°F16.0°C 48.1°F8.9°C 63% Calm Calm -- 30.67 in1038.6 mb 0.00 in0.0 mm 0.00 in0.0 mm 0.00 in0.0 mm
06:34 AM 60.5°F15.8°C 47.9°F8.8°C 63% Calm Calm -- 30.67 in1038.6 mb 0.00 in0.0 mm 0.00 in0.0 mm 0.00 in0.0 mm
06:30 AM 60.3°F15.7°C 48.1°F8.9°C 64% Calm Calm 3.0 mph4.8 kmh 30.67 in1038.6 mb 0.00 in0.0 mm 0.00 in0.0 mm 0.00 in0.0 mm
06:24 AM 60.1°F15.6°C 48.3°F9.1°C 65% Calm Calm 3.0 mph4.8 kmh 30.67 in1038.6 mb 0.00 in0.0 mm 0.00 in0.0 mm 0.00 in0.0 mm
06:19 AM 59.8°F15.4°C 48.0°F8.9°C 65% Calm Calm 5.0 mph8.0 kmh 30.78 in1042.3 mb 0.00 in0.0 mm 0.00 in0.0 mm 0.00 in0.0 mm
06:15 AM 59.5°F15.3°C 46.9°F8.3°C 63% Calm Calm 5.0 mph8.0 kmh 30.78 in1042.3 mb 0.00 in0.0 mm 0.00 in0.0 mm 0.00 in0.0 mm
06:10 AM 59.2°F15.1°C 47.0°F8.3°C 64% 2.0 mph S3.2 kmh S 3.0 mph4.8 kmh 30.78 in1042.3 mb 0.00 in0.0 mm 0.00 in0.0 mm 0.00 in0.0 mm
06:04 AM 59.0°F15.0°C 46.4°F8.0°C 63% Calm Calm 5.0 mph8.0 kmh 30.96 in1048.4 mb 0.00 in0.0 mm 0.00 in0.0 mm 0.00 in0.0 mm
05:59 AM 58.9°F14.9°C 46.8°F8.2°C 64% 2.0 mph S3.2 kmh S 4.0 mph6.4 kmh 30.96 in1048.4 mb 0.00 in0.0 mm 0.00 in0.0 mm 0.00 in0.0 mm
05:55 AM 58.7°F14.8°C 46.6°F8.1°C 64% 2.0 mph S3.2 kmh S 2.0 mph3.2 kmh 30.96 in1048.4 mb 0.00 in0.0 mm 0.00 in0.0 mm 0.00 in0.0 mm
05:49 AM 58.6°F14.8°C 46.5°F8.1°C 64% 5.0 mph S8.0 kmh S 6.0 mph9.7 kmh 30.89 in1046.1 mb 0.00 in0.0 mm 0.00 in0.0 mm 0.00 in0.0 mm
05:45 AM 58.5°F14.7°C 46.4°F8.0°C 64% 6.0 mph S9.7 kmh S 6.0 mph9.7 kmh 31.11 in1053.5 mb 0.00 in0.0 mm 0.00 in0.0 mm 0.00 in0.0 mm
05:40 AM 58.7°F14.8°C 47.0°F8.3°C 65% 2.0 mph S3.2 kmh S 5.0 mph8.0 kmh 30.93 in1047.4 mb 0.00 in0.0 mm 0.00 in0.0 mm 0.00 in0.0 mm
05:35 AM 59.0°F15.0°C 47.7°F8.7°C 66% 2.0 mph SW3.2 kmh SW 4.0 mph6.4 kmh 31.09 in1052.8 mb 0.00 in0.0 mm 0.00 in0.0 mm 0.00 in0.0 mm
05:30 AM 59.0°F15.0°C 46.4°F8.0°C 63% 3.0 mph SW4.8 kmh SW 3.0 mph4.8 kmh 31.09 in1052.8 mb 0.00 in0.0 mm 0.00 in0.0 mm 0.00 in0.0 mm
05:25 AM 59.2°F15.1°C 46.6°F8.1°C 63% 3.0 mph SW4.8 kmh SW 4.0 mph6.4 kmh 30.92 in1047.1 mb 0.00 in0.0 mm 0.00 in0.0 mm 0.00 in0.0 mm
05:20 AM 59.8°F15.4°C 47.2°F8.4°C 63% 3.0 mph SW4.8 kmh SW 4.0 mph6.4 kmh 30.92 in1047.1 mb 0.00 in0.0 mm 0.00 in0.0 mm 0.00 in0.0 mm
05:15 AM 60.5°F15.8°C 47.4°F8.6°C 62% Calm Calm -- 30.92 in1047.1 mb 0.00 in0.0 mm 0.00 in0.0 mm 0.00 in0.0 mm
05:10 AM 60.8°F16.0°C 47.3°F8.5°C 61% Calm Calm -- 30.92 in1047.1 mb 0.00 in0.0 mm 0.00 in0.0 mm 0.00 in0.0 mm
05:05 AM 61.3°F16.3°C 47.8°F8.8°C 61% Calm Calm -- 30.92 in1047.1 mb 0.00 in0.0 mm 0.00 in0.0 mm 0.00 in0.0 mm
05:00 AM 61.6°F16.4°C 47.6°F8.7°C 60% Calm Calm -- 30.92 in1047.1 mb 0.00 in0.0 mm 0.00 in0.0 mm 0.00 in0.0 mm
04:55 AM 61.8°F16.6°C 47.8°F8.8°C 60% Calm Calm 2.0 mph3.2 kmh 30.92 in1047.1 mb 0.00 in0.0 mm 0.00 in0.0 mm 0.00 in0.0 mm
04:50 AM 62.0°F16.7°C 48.0°F8.9°C 60% Calm Calm 1.0 mph1.6 kmh 30.78 in1042.3 mb 0.00 in0.0 mm 0.00 in0.0 mm 0.00 in0.0 mm
04:45 AM 62.0°F16.7°C 48.0°F8.9°C 60% Calm Calm 2.0 mph3.2 kmh 30.78 in1042.3 mb 0.00 in0.0 mm 0.00 in0.0 mm 0.00 in0.0 mm
04:40 AM 62.0°F16.7°C 48.0°F8.9°C 60% Calm Calm 4.0 mph6.4 kmh 30.87 in1045.4 mb 0.00 in0.0 mm 0.00 in0.0 mm 0.00 in0.0 mm
04:35 AM 61.7°F16.5°C 47.7°F8.7°C 60% 1.0 mph WSW1.6 kmh WSW 3.0 mph4.8 kmh 30.87 in1045.4 mb 0.00 in0.0 mm 0.00 in0.0 mm 0.00 in0.0 mm
04:30 AM 61.4°F16.3°C 47.4°F8.6°C 60% Calm Calm 3.0 mph4.8 kmh 30.76 in1041.7 mb 0.00 in0.0 mm 0.00 in0.0 mm 0.00 in0.0 mm
04:25 AM 60.9°F16.1°C 47.4°F8.6°C 61% Calm Calm 4.0 mph6.4 kmh 30.86 in1045.0 mb 0.00 in0.0 mm 0.00 in0.0 mm 0.00 in0.0 mm
04:20 AM 60.5°F15.8°C 47.9°F8.8°C 63% 2.0 mph WSW3.2 kmh WSW 9.0 mph14.5 kmh 30.86 in1045.0 mb 0.00 in0.0 mm 0.00 in0.0 mm 0.00 in0.0 mm
04:15 AM 60.3°F15.7°C 48.9°F9.4°C 66% Calm Calm 2.0 mph3.2 kmh 30.95 in1048.1 mb 0.00 in0.0 mm 0.00 in0.0 mm 0.00 in0.0 mm
04:10 AM 60.2°F15.7°C 48.8°F9.3°C 66% 1.0 mph SSW1.6 kmh SSW 6.0 mph9.7 kmh 31.13 in1054.2 mb 0.00 in0.0 mm 0.00 in0.0 mm 0.00 in0.0 mm
04:05 AM 60.3°F15.7°C 48.9°F9.4°C 66% 5.0 mph SSW8.0 kmh SSW 7.0 mph11.3 kmh 31.09 in1052.8 mb 0.00 in0.0 mm 0.00 in0.0 mm 0.00 in0.0 mm
04:00 AM 60.4°F15.8°C 49.0°F9.4°C 66% 4.0 mph SSW6.4 kmh SSW 6.0 mph9.7 kmh 31.09 in1052.8 mb 0.00 in0.0 mm 0.00 in0.0 mm 0.00 in0.0 mm
03:55 AM 60.6°F15.9°C 49.2°F9.6°C 66% 2.0 mph SSE3.2 kmh SSE 5.0 mph8.0 kmh 31.09 in1052.8 mb 0.00 in0.0 mm 0.00 in0.0 mm 0.00 in0.0 mm
03:50 AM 60.9°F16.1°C 49.5°F9.7°C 66% 2.0 mph SSE3.2 kmh SSE 7.0 mph11.3 kmh 31.09 in1052.8 mb 0.00 in0.0 mm 0.00 in0.0 mm 0.00 in0.0 mm
03:45 AM 61.0°F16.1°C 49.2°F9.6°C 65% 4.0 mph SW6.4 kmh SW 7.0 mph11.3 kmh 30.91 in1046.7 mb 0.00 in0.0 mm 0.00 in0.0 mm 0.00 in0.0 mm
03:40 AM 61.1°F16.2°C 49.3°F9.6°C 65% 2.0 mph WSW3.2 kmh WSW 3.0 mph4.8 kmh 30.91 in1046.7 mb 0.00 in0.0 mm 0.00 in0.0 mm 0.00 in0.0 mm
03:35 AM 61.1°F16.2°C 49.3°F9.6°C 65% Calm Calm 3.0 mph4.8 kmh 30.91 in1046.7 mb 0.00 in0.0 mm 0.00 in0.0 mm 0.00 in0.0 mm
03:30 AM 61.1°F16.2°C 49.3°F9.6°C 65% Calm Calm 1.0 mph1.6 kmh 31.01 in1050.1 mb 0.00 in0.0 mm 0.00 in0.0 mm 0.00 in0.0 mm
03:25 AM 61.1°F16.2°C 49.3°F9.6°C 65% Calm Calm 3.0 mph4.8 kmh 31.01 in1050.1 mb 0.00 in0.0 mm 0.00 in0.0 mm 0.00 in0.0 mm
03:20 AM 61.1°F16.2°C 49.3°F9.6°C 65% 1.0 mph WSW1.6 kmh WSW 3.0 mph4.8 kmh 31.01 in1050.1 mb 0.00 in0.0 mm 0.00 in0.0 mm 0.00 in0.0 mm
03:15 AM 61.0°F16.1°C 49.2°F9.6°C 65% Calm Calm 2.0 mph3.2 kmh 31.01 in1050.1 mb 0.00 in0.0 mm 0.00 in0.0 mm 0.00 in0.0 mm
03:10 AM 60.9°F16.1°C 48.7°F9.3°C 64% Calm Calm -- 30.92 in1047.1 mb 0.00 in0.0 mm 0.00 in0.0 mm 0.00 in0.0 mm
03:05 AM 60.9°F16.1°C 48.7°F9.3°C 64% Calm Calm -- 30.92 in1047.1 mb 0.00 in0.0 mm 0.00 in0.0 mm 0.00 in0.0 mm
03:00 AM 60.8°F16.0°C 48.6°F9.2°C 64% Calm Calm -- 30.92 in1047.1 mb 0.00 in0.0 mm 0.00 in0.0 mm 0.00 in0.0 mm
02:55 AM 60.7°F15.9°C 48.9°F9.4°C 65% 3.0 mph WSW4.8 kmh WSW 5.0 mph8.0 kmh 30.89 in1046.1 mb 0.00 in0.0 mm 0.00 in0.0 mm 0.00 in0.0 mm
02:50 AM 60.6°F15.9°C 49.2°F9.6°C 66% 5.0 mph WSW8.0 kmh WSW 6.0 mph9.7 kmh 30.89 in1046.1 mb 0.00 in0.0 mm 0.00 in0.0 mm 0.00 in0.0 mm
02:45 AM 60.6°F15.9°C 49.2°F9.6°C 66% 5.0 mph WSW8.0 kmh WSW 6.0 mph9.7 kmh 30.85 in1044.7 mb 0.00 in0.0 mm 0.00 in0.0 mm 0.00 in0.0 mm
02:40 AM 60.6°F15.9°C 49.6°F9.8°C 67% 3.0 mph WSW4.8 kmh WSW 7.0 mph11.3 kmh 31.05 in1051.5 mb 0.00 in0.0 mm 0.00 in0.0 mm 0.00 in0.0 mm
02:35 AM 60.6°F15.9°C 49.6°F9.8°C 67% 5.0 mph WSW8.0 kmh WSW 6.0 mph9.7 kmh 30.97 in1048.8 mb 0.00 in0.0 mm 0.00 in0.0 mm 0.00 in0.0 mm
02:30 AM 60.6°F15.9°C 50.0°F10.0°C 68% 6.0 mph WSW9.7 kmh WSW 6.0 mph9.7 kmh 31.15 in1054.9 mb 0.00 in0.0 mm 0.00 in0.0 mm 0.00 in0.0 mm
02:25 AM 60.6°F15.9°C 50.0°F10.0°C 68% 5.0 mph WSW8.0 kmh WSW 8.0 mph12.9 kmh 31.15 in1054.9 mb 0.00 in0.0 mm 0.00 in0.0 mm 0.00 in0.0 mm
02:20 AM 60.5°F15.8°C 50.3°F10.2°C 69% 4.0 mph WSW6.4 kmh WSW 7.0 mph11.3 kmh 31.04 in1051.1 mb 0.00 in0.0 mm 0.00 in0.0 mm 0.00 in0.0 mm
02:15 AM 60.4°F15.8°C 50.2°F10.1°C 69% 5.0 mph WSW8.0 kmh WSW 8.0 mph12.9 kmh 31.07 in1052.2 mb 0.00 in0.0 mm 0.00 in0.0 mm 0.00 in0.0 mm
02:10 AM 60.4°F15.8°C 50.6°F10.3°C 70% 5.0 mph WSW8.0 kmh WSW 8.0 mph12.9 kmh 31.07 in1052.2 mb 0.00 in0.0 mm 0.00 in0.0 mm 0.00 in0.0 mm
02:05 AM 60.3°F15.7°C 50.5°F10.3°C 70% 1.0 mph WSW1.6 kmh WSW 7.0 mph11.3 kmh 31.13 in1054.2 mb 0.00 in0.0 mm 0.00 in0.0 mm 0.00 in0.0 mm
02:00 AM 60.2°F15.7°C 50.8°F10.4°C 71% 5.0 mph WSW8.0 kmh WSW 7.0 mph11.3 kmh 31.17 in1055.5 mb 0.00 in0.0 mm 0.00 in0.0 mm 0.00 in0.0 mm
01:55 AM 60.1°F15.6°C 50.7°F10.4°C 71% 5.0 mph WSW8.0 kmh WSW 9.0 mph14.5 kmh 30.95 in1048.1 mb 0.00 in0.0 mm 0.00 in0.0 mm 0.00 in0.0 mm
01:50 AM 60.0°F15.6°C 50.6°F10.3°C 71% 4.0 mph WSW6.4 kmh WSW 9.0 mph14.5 kmh 30.74 in1041.0 mb 0.00 in0.0 mm 0.00 in0.0 mm 0.00 in0.0 mm
01:45 AM 59.9°F15.5°C 50.9°F10.5°C 72% 4.0 mph SW6.4 kmh SW 6.0 mph9.7 kmh 30.74 in1041.0 mb 0.00 in0.0 mm 0.00 in0.0 mm 0.00 in0.0 mm
01:40 AM 60.0°F15.6°C 51.0°F10.6°C 72% 2.0 mph SW3.2 kmh SW 6.0 mph9.7 kmh 30.74 in1041.0 mb 0.00 in0.0 mm 0.00 in0.0 mm 0.00 in0.0 mm
01:35 AM 60.1°F15.6°C 51.1°F10.6°C 72% 4.0 mph SW6.4 kmh SW 4.0 mph6.4 kmh 30.74 in1041.0 mb 0.00 in0.0 mm 0.00 in0.0 mm 0.00 in0.0 mm
01:29 AM 60.3°F15.7°C 51.3°F10.7°C 72% Calm Calm 3.0 mph4.8 kmh 30.74 in1041.0 mb 0.00 in0.0 mm 0.00 in0.0 mm 0.00 in0.0 mm
01:25 AM 60.4°F15.8°C 51.7°F10.9°C 73% 1.0 mph SW1.6 kmh SW 1.0 mph1.6 kmh 30.94 in1047.7 mb 0.00 in0.0 mm 0.00 in0.0 mm 0.00 in0.0 mm
01:20 AM 60.4°F15.8°C 51.7°F10.9°C 73% 2.0 mph SW3.2 kmh SW 2.0 mph3.2 kmh 30.94 in1047.7 mb 0.00 in0.0 mm 0.00 in0.0 mm 0.00 in0.0 mm
01:15 AM 60.5°F15.8°C 51.8°F11.0°C 73% Calm Calm -- 30.94 in1047.7 mb 0.00 in0.0 mm 0.00 in0.0 mm 0.00 in0.0 mm
01:10 AM 60.6°F15.9°C 51.9°F11.1°C 73% 3.0 mph SW4.8 kmh SW 3.0 mph4.8 kmh 30.94 in1047.7 mb 0.00 in0.0 mm 0.00 in0.0 mm 0.00 in0.0 mm
01:05 AM 60.7°F15.9°C 52.0°F11.1°C 73% 3.0 mph SW4.8 kmh SW 4.0 mph6.4 kmh 31.04 in1051.1 mb 0.00 in0.0 mm 0.00 in0.0 mm 0.00 in0.0 mm
01:00 AM 60.8°F16.0°C 52.1°F11.2°C 73% 1.0 mph SW1.6 kmh SW 2.0 mph3.2 kmh 31.06 in1051.8 mb 0.00 in0.0 mm 0.00 in0.0 mm 0.00 in0.0 mm
12:55 AM 60.9°F16.1°C 51.8°F11.0°C 72% 3.0 mph SW4.8 kmh SW 3.0 mph4.8 kmh 31.10 in1053.2 mb 0.00 in0.0 mm 0.00 in0.0 mm 0.00 in0.0 mm
12:50 AM 61.1°F16.2°C 52.0°F11.1°C 72% 4.0 mph SW6.4 kmh SW 4.0 mph6.4 kmh 31.10 in1053.2 mb 0.00 in0.0 mm 0.00 in0.0 mm 0.00 in0.0 mm
12:45 AM 61.4°F16.3°C 52.3°F11.3°C 72% 3.0 mph SW4.8 kmh SW 3.0 mph4.8 kmh 31.04 in1051.1 mb 0.00 in0.0 mm 0.00 in0.0 mm 0.00 in0.0 mm
12:40 AM 61.6°F16.4°C 52.1°F11.2°C 71% 1.0 mph SW1.6 kmh SW 1.0 mph1.6 kmh 31.08 in1052.5 mb 0.00 in0.0 mm 0.00 in0.0 mm 0.00 in0.0 mm
12:35 AM 61.7°F16.5°C 52.2°F11.2°C 71% 3.0 mph SW4.8 kmh SW 6.0 mph9.7 kmh 31.08 in1052.5 mb 0.00 in0.0 mm 0.00 in0.0 mm 0.00 in0.0 mm
12:30 AM 61.8°F16.6°C 52.3°F11.3°C 71% 5.0 mph SW8.0 kmh SW 5.0 mph8.0 kmh 31.10 in1053.2 mb 0.00 in0.0 mm 0.00 in0.0 mm 0.00 in0.0 mm
12:25 AM 61.8°F16.6°C 51.9°F11.1°C 70% 4.0 mph SW6.4 kmh SW 4.0 mph6.4 kmh 31.03 in1050.8 mb 0.00 in0.0 mm 0.00 in0.0 mm 0.00 in0.0 mm
12:20 AM 62.0°F16.7°C 52.1°F11.2°C 70% 4.0 mph SW6.4 kmh SW 4.0 mph6.4 kmh 31.03 in1050.8 mb 0.00 in0.0 mm 0.00 in0.0 mm 0.00 in0.0 mm
12:15 AM 62.1°F16.7°C 51.8°F11.0°C 69% 1.0 mph SW1.6 kmh SW 3.0 mph4.8 kmh 31.03 in1050.8 mb 0.00 in0.0 mm 0.00 in0.0 mm 0.00 in0.0 mm
12:10 AM 62.2°F16.8°C 51.9°F11.1°C 69% 4.0 mph SW6.4 kmh SW 4.0 mph6.4 kmh 31.10 in1053.2 mb 0.00 in0.0 mm 0.00 in0.0 mm 0.00 in0.0 mm
12:05 AM 62.2°F16.8°C 51.5°F10.8°C 68% 4.0 mph SW6.4 kmh SW 4.0 mph6.4 kmh 31.06 in1051.8 mb 0.00 in0.0 mm 0.00 in0.0 mm 0.00 in0.0 mm
12:00 AM 62.3°F16.8°C 51.6°F10.9°C 68% 2.0 mph SW3.2 kmh SW 2.0 mph3.2 kmh 31.10 in1053.2 mb 0.00 in0.0 mm 0.00 in0.0 mm 0.00 in0.0 mm